LiveATC.Net - Listen to live air traffic control over the Internet!

Find LiveATC Audio Streams


Airport/ARTCC Code

Frequency
(e.g., 124.400, 128.75)
Site-wide search

Browse LiveATC Feeds
LiveATC Coverage Map
Top 50 LiveATC Feeds
Bad Weather Areas

LiveATC FAQ
Offer a LiveATC Feed
Contact LiveATC.net
Press Inquiries

LiveATC on iPhone
LiveATC on Android

Windows Phone
Windows 8/10

LiveATC Mobile
(Mobile browser)

ATC Audio Archives
Interesting Recordings

LiveATC Forums

Home Page
About LiveATC.net
Make a Donation
LiveATC Store

Terms of Use
Privacy Policy

Canadian Air Freqs

AIRMETs/SIGMETs

FAA Airport Status
Nat'l Airspace Status
Arrival Demand Charts


Server Software By:
Icecast.org
Liquidsoap


Current Potentially Bad Weather Airports
(updated every 30 minutes - sorted alphabetically by ICAO code)



This page lists LiveATC.net airport areas that may be interesting to listen to because of challenging flying (weather) conditions. Challenging weather conditions include low ceilings, limited visibility, high or gusty winds, or thunderstorms.

Updated: Tue May 24 13:40:01 UTC 2016
Click on airport name to go to that airport area's feeds.

ENTC Tower/AppTromso Airport
WX MAP UNAVAILABLENearest METAR:
ENTC 241320Z 23015KT 9000 -RA FEW006 BKN032 09/05 Q1015 TEMPO BKN012 RMK WIND 2600FT 20032KT
KAAO CTAFColonel James Jabara Airport
kaaoNearest METAR:
KAAO 241308Z AUTO 07011KT 10SM OVC007 18/18 A2995 RMK AO2 CIG 005V009 T01830178
KABI/KDYS Gnd/Twr/App/ZFWAbilene Regional Airport
kabiNearest METAR:
KABI 241252Z 13011KT 7SM OVC007 23/21 A2991 RMK AO2 SLP103 T02330211 $
KACK TowerNantucket Memorial Airport
kackNearest METAR:
KACK 241322Z 16012KT 3/4SM R24/1800V2200FT -RA BR VV002 13/12 A2987 RMK AO2 P0000 T01280122 $
KBOS App (North/Rockport)General Edward Lawrence Logan International Airport
kbosNearest METAR:
KBOS 241254Z 06012KT 1 1/4SM -RA BR OVC009 12/11 A2994 RMK AO2 SFC VIS 2 RAE18B40 SLP136 P0002 T01170106
MA/NH/RI/CT Area CTAFHopedale Industrial Park Airport
kpymNearest METAR:
KPYM 241252Z AUTO 04011G18KT 1 3/4SM BR OVC003 11/11 A2989 RMK AO2 SLP122 T01110106 TSNO
KBVY Ground/TowerBeverly Municipal Airport
kbvyNearest METAR:
KBVY 241314Z 05009KT 1 3/4SM -RA BR OVC005 12/10 A2993 RMK AO2 RAB10 P0001 T01170100
KCFD CTAF/AppCoulter Field Airport
kcfdNearest METAR:
KCFD 241315Z AUTO 16004KT 10SM OVC004 23/23 A2996 RMK AO2 T02290229
KDVO CTAFGnoss Field Airport
kdvoNearest METAR:
KDVO 241315Z AUTO 00000KT M1/4SM FG VV000 09/09 A2990 RMK AO2
KHUT Ground/TwrHutchinson Municipal Airport
khutNearest METAR:
KHUT 241252Z 02017G27KT 10SM FEW014 SCT022 OVC030 17/15 A2998 RMK AO2 PK WND 01027/1251 LTG DSNT N AND NE SLP134 T01720150
KHYA/KFMH Twr/Cape AppBarnstable Municipal Airport-Boardman/Polando Field
khyaNearest METAR:
KHYA 241303Z 08005KT 3/4SM BR OVC002 13/13 A2985 RMK AO2 T01280128
KHYA/KFMH Twr/Cape AppBarnstable Municipal Airport-Boardman/Polando Field
kfmhNearest METAR:
KFMH 241315Z AUTO 04010KT 1/2SM FG OVC003 12/12 A2987 RMK AO2
KJBR CTAF/UNICOM/MiscJonesboro Municipal Airport
kjbrNearest METAR:
KJBR 241253Z AUTO 21009KT 10SM FEW036 FEW090 SCT120 22/14 A3004 RMK AO2 LTG DSNT S AND SW SLP169 T02220144
KJWY/2TS6 CTAF/UnicomMid-Way Regional Airport
kjwyNearest METAR:
KJWY 241315Z AUTO 00000KT 7SM OVC008 23/23 A2997 RMK AO2 T02280226
KLWM Ground/TowerLawrence Municipal Airport
klwmNearest METAR:
KLWM 241259Z 03009KT 3SM -RA BR OVC006 12/11 A2995 RMK AO2 P0000 T01220111
KMKC Gnd/Twr/AppCharles B. Wheeler Downtown Airport
kmkcNearest METAR:
KMKC 241254Z 08010KT 10SM -RA FEW055 SCT075 BKN110 18/17 A2988 RMK AO2 LTG DSNT N-SE TSE15 PRESFR SLP114 P0003 T01830167
KMLC CTAF/ZFWMcAlester Regional Airport
kmlcNearest METAR:
KMLC 241253Z AUTO 18008G16KT 10SM SCT014 23/21 A2994 RMK AO2 LTG DSNT S AND SW SLP129 T02330206
KMVY Del/Gnd/TwrMartha's Vineyard Airport
kmvyNearest METAR:
KMVY 241253Z 05012KT 1/2SM R24/2600V3000FT FG OVC002 13/12 A2985 RMK AO2 SLP108 T01280122
KOJC Gnd/Twr/App/ZKCJohnson County Executive Airport
kojcNearest METAR:
KOJC 241253Z 17007KT 4SM BR FEW085 SCT110 17/16 A2992 RMK AO2 LTG DSNT E AND SE RAE28 TSE13 SLP127 P0001 T01670161
KOWD Ground/TowerNorwood Municipal Airport
kowdNearest METAR:
KOWD 241253Z 04010KT 3SM BR OVC006 12/11 A2991 RMK AO2 RAB30E42 SLP128 P0000 T01170106
KPVD Del/Gnd/Twr/AppTheodore Francis Green State Airport
kpvdNearest METAR:
KPVD 241251Z 02013KT 4SM -DZ BR OVC008 13/11 A2989 RMK AO2 RAB40E46DZB46 SLP121 P0000 T01280111
KSLN Ground/TowerSalina Regional Airport
kslnNearest METAR:
KSLN 241310Z 13007KT 8SM -RA FEW090 BKN110 17/15 A2995 RMK AO2 LTG DSNT NE-SE TSE04 P0001 T01670150
KSTS TowerCharles M. Schulz - Sonoma County Airport
kstsNearest METAR:
KSTS 241324Z AUTO 00000KT 1 1/2SM BR OVC002 09/09 A2989 RMK AO2 T00890089
LHBP InfoBudapest Ferihegy International Airport
WX MAP UNAVAILABLENearest METAR:
LHBP 241330Z 25011KT 9999 TS BKN025 SCT030CB BKN050 16/13 Q1005 TEMPO TSRA
LZKZ Gnd/Twr/AppKosice International Airport
WX MAP UNAVAILABLENearest METAR:
LZKZ 241330Z 22007KT 9999 -TSRA FEW036CB SCT070 22/15 Q1003 NOSIG
PASC CTAF/Unicom/AFIS/AppDeadhorse Airport
WX MAP UNAVAILABLENearest METAR:
PASC 241253Z 09007KT 3/4SM R05/4500VP6000FT BR OVC002 00/00 A2995 RMK AO2 SLP142 I1000 T00000000
RI Area Misc/USCGRichmond Airport
kuuuNearest METAR:
KUUU 241253Z AUTO 02008KT 8SM OVC005 13/11 A2986 RMK AO2 SLP111 T01280111
RI Area Misc/USCGRichmond Airport
kbidNearest METAR:
KBID 241316Z AUTO 03010KT 3/4SM -RA BR OVC003 12/12 A2986 RMK AO2 RAB1257 P0000
TNCA Twr/Apron/FIRReina Beatrix International Airport
WX MAP UNAVAILABLENearest METAR:
TNCA 241300Z 09024G34KT 9999 FEW020 30/25 Q1013 NOSIG
URKK Gnd/Twr/AppPashkovskiy General Airport
WX MAP UNAVAILABLENearest METAR:
URKK 241300Z 19004MPS 160V230 9999 SCT///CB 21/14 Q1009 R23C/CLRD70 TEMPO -TSRA RMK QFE753
URSS Gnd/Twr/AppSochi International Airport
WX MAP UNAVAILABLENearest METAR:
URSS 241300Z 16003MPS 9999 -SHRA SCT014 OVC039CB 17/14 Q1010 R02/210150 R06/210150 TEMPO 1500 TSRA BKN004 BKN020CB RMK R06/17003MPS MT OBSC QFE756
USTR Gnd/Twr/AppRoshchino International Airport
WX MAP UNAVAILABLENearest METAR:
USTR 241300Z 35006G11MPS 9999 SCT026CB BKN070 20/09 Q1021 R03/290060 TEMPO VRB16MPS -TSRA SQ RMK QFE755/1007
UUWW Gnd/Twr/App/ACCVnukovo Airport
WX MAP UNAVAILABLENearest METAR:
UUWW 241300Z 08002MPS 9999 SCT050CB 16/12 Q1011 R06/290050 TEMPO VRB18MPS 1100 TSRA BKN020CB